Monte Caseros, Argentina

5:17 AM ART on December 19, 2014 (GMT -0300)
Rubem Berta International | Change Station
CLOSE
Current Station
Airport
Location: Uruguaiana Airport,
Elevation: 243 ft
Nearby Weather Stations

Elev 243 ft 29.78 °S, 57.04 °W | Updated 17 minutes ago

Clear
Clear
66 °F
Feels Like 66 °F
N
5
Wind Variable Wind from ENE

Today
High -- | Low -- °F
--% Chance of Precip.
Yesterday
High -- | Low -- °F
Precip. -- in
5:44 AM 7:50 PM
Waning Crescent, 9% visible
Pressure 29.80 in
Visibility -9999.0 miles
Clouds
Dew Point 55 °F
Humidity 68%
Rainfall 0.00 in
Snow Depth Not available.
UV Not available.
Pollen Not available.
Air Quality Not available.
Flu Activity Not available.
METAR SBUG 190800Z 07004KT CAVOK 19/13 Q1009

More Conditions Fewer Conditions

Pressure 29.80 in
Visibility -9999.0 miles
Clouds
Dew Point 55 °F
Humidity 68%
Rainfall 0.00 in
Snow Depth Not available.
UV Not available.
Pollen Not available.
Air Quality Not available.
Flu Activity Not available.
METAR SBUG 190800Z 07004KT CAVOK 19/13 Q1009

More Conditions Fewer Conditions

10-Day Weather Forecast

Almanac

Astronomy

Dec. 19, 2014 Rise Set
Actual Time
Civil Twilight
Nautical Twilight
Astronomical Twilight
Moon
Length of Visible Light
Length of Day
Tomorrow will be .
, % of the Moon is Illuminated

Today's Extremes

Country Highs Country Lows

Community

WunderPhotos

Upload Photos

1,778,953 photos uploaded!

WunderBlogs® & News

Nearby

Air Quality

  Air Quality AQ Index Pollutant
Not available.

Snow Depth

Station Depth Elevation

Earthquake Activity

City Distance Mag. Time & Date
Minimum magnitude displayed is 2.5.

Coastal Water Temperatures

Place Temperature

Nearby Weather Stations